TVF44MA LFBD-LPPR
Flight info
| Callsign | TVF44MA |
|---|---|
| Flight time | N/A |
| Altitude | 33000 |
| Route | VAVIX DCT BTZ DCT URUNA DCT SSN DCT VRA DCT NEA DCT ZMR L155 ADORO DCT INKIT |
| Aircraft | B738/M-SDE2E3FGHIRWXY/LB1 |
Departure
| Time | N/A |
|---|---|
| Airport | Bordeaux–Mérignac Airport (LFBD) |
Arrival
| Time | 2026-05-03 21:13 |
|---|---|
| Airport | Francisco de Sá Carneiro Airport (LPPR) |
| Time | Latitude | Longitude | Altitude | Speed | Heading |
|---|---|---|---|---|---|
| 2026-05-03 20:15 | 43.78185 | -1.25691 | 19878 ft | 436 kts | 219° |
| 2026-05-03 20:15 | 43.75836 | -1.28373 | 19999 ft | 439 kts | 219° |
| 2026-05-03 20:15 | 43.74279 | -1.30149 | 20121 ft | 439 kts | 219° |
| 2026-05-03 20:15 | 43.71916 | -1.32842 | 20303 ft | 440 kts | 219° |
| 2026-05-03 20:16 | 43.69555 | -1.35531 | 20454 ft | 441 kts | 219° |
| 2026-05-03 20:16 | 43.67173 | -1.38239 | 20502 ft | 445 kts | 219° |
| 2026-05-03 20:16 | 43.64783 | -1.40954 | 20674 ft | 445 kts | 219° |
| 2026-05-03 20:16 | 43.62401 | -1.43659 | 20867 ft | 444 kts | 219° |
| 2026-05-03 20:17 | 43.60011 | -1.46369 | 21004 ft | 445 kts | 219° |
| 2026-05-03 20:17 | 43.57614 | -1.49084 | 21119 ft | 446 kts | 219° |
| 2026-05-03 20:17 | 43.55208 | -1.51805 | 21229 ft | 448 kts | 219° |
| 2026-05-03 20:17 | 43.52797 | -1.54530 | 21337 ft | 448 kts | 219° |
| 2026-05-03 20:18 | 43.50385 | -1.57254 | 21444 ft | 449 kts | 219° |
| 2026-05-03 20:18 | 43.47962 | -1.59987 | 21500 ft | 452 kts | 219° |
| 2026-05-03 20:18 | 43.45532 | -1.62726 | 22106 ft | 447 kts | 219° |
| 2026-05-03 20:18 | 43.43156 | -1.65400 | 23060 ft | 436 kts | 219° |
| 2026-05-03 20:19 | 43.40822 | -1.68024 | 23760 ft | 433 kts | 219° |
| 2026-05-03 20:19 | 43.38477 | -1.70658 | 24142 ft | 437 kts | 219° |
| 2026-05-03 20:19 | 43.36156 | -1.73380 | 24441 ft | 442 kts | 224° |
| 2026-05-03 20:19 | 43.34118 | -1.76561 | 24796 ft | 445 kts | 234° |
| 2026-05-03 20:20 | 43.32414 | -1.80108 | 25228 ft | 446 kts | 237° |
| 2026-05-03 20:20 | 43.30730 | -1.83694 | 25581 ft | 449 kts | 236° |
| 2026-05-03 20:20 | 43.28930 | -1.87220 | 25912 ft | 452 kts | 234° |
| 2026-05-03 20:20 | 43.27038 | -1.90670 | 26259 ft | 454 kts | 232° |
| 2026-05-03 20:21 | 43.25101 | -1.94109 | 26477 ft | 459 kts | 232° |
| 2026-05-03 20:21 | 43.23129 | -1.97595 | 26616 ft | 465 kts | 232° |
| 2026-05-03 20:21 | 43.21137 | -2.01132 | 26769 ft | 471 kts | 232° |
| 2026-05-03 20:21 | 43.19143 | -2.04694 | 27058 ft | 472 kts | 233° |
| 2026-05-03 20:22 | 43.17152 | -2.08272 | 27456 ft | 471 kts | 233° |
| 2026-05-03 20:22 | 43.15173 | -2.11836 | 27853 ft | 470 kts | 233° |
| 2026-05-03 20:22 | 43.13191 | -2.15410 | 28109 ft | 473 kts | 233° |
| 2026-05-03 20:22 | 43.11202 | -2.18993 | 28462 ft | 472 kts | 233° |
| 2026-05-03 20:23 | 43.09220 | -2.22560 | 28892 ft | 470 kts | 233° |
| 2026-05-03 20:23 | 43.07243 | -2.26111 | 29314 ft | 468 kts | 233° |
| 2026-05-03 20:23 | 43.05271 | -2.29649 | 29762 ft | 466 kts | 233° |
| 2026-05-03 20:23 | 43.03310 | -2.33163 | 30084 ft | 466 kts | 233° |
| 2026-05-03 20:24 | 43.01338 | -2.36693 | 30379 ft | 468 kts | 233° |
| 2026-05-03 20:24 | 42.99366 | -2.40217 | 30713 ft | 467 kts | 233° |
| 2026-05-03 20:24 | 42.97388 | -2.43747 | 31035 ft | 467 kts | 233° |
| 2026-05-03 20:24 | 42.95421 | -2.47256 | 31433 ft | 465 kts | 232° |
| 2026-05-03 20:25 | 42.93452 | -2.50761 | 31732 ft | 465 kts | 232° |
| 2026-05-03 20:25 | 42.91485 | -2.54261 | 32097 ft | 464 kts | 232° |
| 2026-05-03 20:25 | 42.89527 | -2.57739 | 32463 ft | 462 kts | 232° |
| 2026-05-03 20:25 | 42.87595 | -2.61169 | 32770 ft | 461 kts | 232° |
| 2026-05-03 20:26 | 42.85614 | -2.64681 | 33014 ft | 462 kts | 232° |
| 2026-05-03 20:26 | 42.81691 | -2.71623 | 33003 ft | 466 kts | 232° |
| 2026-05-03 20:27 | 42.77747 | -2.78587 | 33002 ft | 462 kts | 232° |
| 2026-05-03 20:27 | 42.73833 | -2.85484 | 33001 ft | 459 kts | 232° |
| 2026-05-03 20:28 | 42.69967 | -2.92360 | 33001 ft | 456 kts | 233° |
| 2026-05-03 20:28 | 42.66152 | -2.99237 | 33001 ft | 456 kts | 233° |
| 2026-05-03 20:29 | 42.62328 | -3.06115 | 33002 ft | 458 kts | 233° |
| 2026-05-03 20:29 | 42.58445 | -3.13069 | 33010 ft | 466 kts | 233° |
| 2026-05-03 20:30 | 42.54522 | -3.20072 | 32999 ft | 466 kts | 233° |
| 2026-05-03 20:30 | 42.50591 | -3.27071 | 33003 ft | 467 kts | 233° |
| 2026-05-03 20:31 | 42.46658 | -3.34057 | 32999 ft | 466 kts | 233° |
| 2026-05-03 20:31 | 42.42720 | -3.41037 | 33000 ft | 466 kts | 233° |
| 2026-05-03 20:32 | 42.38811 | -3.47950 | 33001 ft | 465 kts | 232° |
| 2026-05-03 20:32 | 42.34873 | -3.54896 | 33000 ft | 465 kts | 232° |
| 2026-05-03 20:33 | 42.30913 | -3.61867 | 33001 ft | 465 kts | 232° |
| 2026-05-03 20:33 | 42.26999 | -3.68740 | 33002 ft | 464 kts | 232° |
| 2026-05-03 20:34 | 42.23063 | -3.75637 | 33000 ft | 464 kts | 232° |
| 2026-05-03 20:34 | 42.19124 | -3.82523 | 33002 ft | 463 kts | 232° |
| 2026-05-03 20:35 | 42.15186 | -3.89391 | 33000 ft | 463 kts | 232° |
| 2026-05-03 20:35 | 42.11242 | -3.96256 | 33002 ft | 463 kts | 232° |
| 2026-05-03 20:36 | 42.07303 | -4.03098 | 33002 ft | 463 kts | 232° |
| 2026-05-03 20:36 | 42.03387 | -4.09972 | 32997 ft | 463 kts | 236° |
| 2026-05-03 20:37 | 42.00510 | -4.17682 | 33008 ft | 462 kts | 247° |
| 2026-05-03 20:37 | 41.98051 | -4.25660 | 33000 ft | 462 kts | 248° |
| 2026-05-03 20:38 | 41.95564 | -4.33635 | 33001 ft | 463 kts | 247° |
| 2026-05-03 20:38 | 41.93040 | -4.41584 | 33001 ft | 463 kts | 247° |
| 2026-05-03 20:39 | 41.90512 | -4.49476 | 33002 ft | 463 kts | 247° |
| 2026-05-03 20:39 | 41.87962 | -4.57409 | 33001 ft | 463 kts | 246° |
| 2026-05-03 20:40 | 41.85404 | -4.65346 | 33002 ft | 463 kts | 246° |
| 2026-05-03 20:40 | 41.82841 | -4.73278 | 33000 ft | 463 kts | 246° |
| 2026-05-03 20:41 | 41.80275 | -4.81198 | 33001 ft | 464 kts | 246° |
| 2026-05-03 20:41 | 41.77700 | -4.89121 | 33001 ft | 464 kts | 246° |
| 2026-05-03 20:42 | 41.75120 | -4.97039 | 33001 ft | 464 kts | 246° |
| 2026-05-03 20:42 | 41.72535 | -5.04947 | 33000 ft | 464 kts | 246° |
| 2026-05-03 20:43 | 41.69944 | -5.12851 | 33002 ft | 464 kts | 246° |
| 2026-05-03 20:43 | 41.67350 | -5.20742 | 33001 ft | 464 kts | 246° |
| 2026-05-03 20:44 | 41.64749 | -5.28632 | 33001 ft | 463 kts | 246° |
| 2026-05-03 20:44 | 41.62146 | -5.36506 | 33000 ft | 463 kts | 246° |
| 2026-05-03 20:45 | 41.59536 | -5.44377 | 33002 ft | 463 kts | 246° |
| 2026-05-03 20:45 | 41.56924 | -5.52237 | 32999 ft | 463 kts | 246° |
| 2026-05-03 20:46 | 41.54309 | -5.60082 | 33002 ft | 463 kts | 246° |
| 2026-05-03 20:46 | 41.52572 | -5.68252 | 32998 ft | 462 kts | 264° |
| 2026-05-03 20:47 | 41.52009 | -5.76783 | 32998 ft | 462 kts | 265° |
| 2026-05-03 20:47 | 41.51459 | -5.85299 | 33000 ft | 461 kts | 265° |
| 2026-05-03 20:48 | 41.50855 | -5.93826 | 32999 ft | 462 kts | 264° |
| 2026-05-03 20:48 | 41.50227 | -6.02344 | 33004 ft | 462 kts | 264° |
| 2026-05-03 20:49 | 41.49591 | -6.10868 | 33003 ft | 462 kts | 264° |
| 2026-05-03 20:49 | 41.48953 | -6.19390 | 33000 ft | 462 kts | 264° |
| 2026-05-03 20:50 | 41.48293 | -6.27915 | 33005 ft | 462 kts | 262° |
| 2026-05-03 20:50 | 41.46965 | -6.36300 | 32886 ft | 464 kts | 256° |
| 2026-05-03 20:50 | 41.46167 | -6.40477 | 32619 ft | 465 kts | 256° |
| 2026-05-03 20:51 | 41.45359 | -6.44647 | 32151 ft | 466 kts | 256° |
| 2026-05-03 20:51 | 41.44558 | -6.48828 | 31498 ft | 465 kts | 256° |
| 2026-05-03 20:51 | 41.43771 | -6.52986 | 30968 ft | 461 kts | 255° |
| 2026-05-03 20:51 | 41.42944 | -6.57073 | 30163 ft | 454 kts | 254° |
| 2026-05-03 20:52 | 41.42077 | -6.61124 | 29026 ft | 456 kts | 254° |
| 2026-05-03 20:52 | 41.41191 | -6.65166 | 28343 ft | 448 kts | 253° |
| 2026-05-03 20:52 | 41.40314 | -6.69157 | 27776 ft | 455 kts | 253° |
| 2026-05-03 20:52 | 41.39426 | -6.73221 | 27259 ft | 470 kts | 254° |
| 2026-05-03 20:53 | 41.38497 | -6.77495 | 26673 ft | 477 kts | 254° |
| 2026-05-03 20:53 | 41.37582 | -6.81728 | 26098 ft | 474 kts | 254° |
| 2026-05-03 20:53 | 41.36672 | -6.85941 | 25526 ft | 473 kts | 254° |
| 2026-05-03 20:53 | 41.35781 | -6.90067 | 25156 ft | 469 kts | 254° |
| 2026-05-03 20:54 | 41.34879 | -6.94239 | 25052 ft | 470 kts | 254° |
| 2026-05-03 20:54 | 41.33071 | -7.02582 | 25001 ft | 466 kts | 254° |
| 2026-05-03 20:54 | 41.32173 | -7.06710 | 25003 ft | 465 kts | 254° |
| 2026-05-03 20:55 | 41.31270 | -7.10850 | 24997 ft | 466 kts | 254° |
| 2026-05-03 20:55 | 41.30367 | -7.14985 | 24996 ft | 467 kts | 254° |
| 2026-05-03 20:55 | 41.29459 | -7.19137 | 25005 ft | 468 kts | 253° |
| 2026-05-03 20:55 | 41.28552 | -7.23271 | 24995 ft | 464 kts | 253° |
| 2026-05-03 20:56 | 41.27649 | -7.27380 | 24992 ft | 461 kts | 253° |
| 2026-05-03 20:56 | 41.26752 | -7.31458 | 24966 ft | 458 kts | 253° |
| 2026-05-03 20:56 | 41.25861 | -7.35500 | 24403 ft | 452 kts | 253° |
| 2026-05-03 20:56 | 41.24973 | -7.39517 | 23323 ft | 457 kts | 253° |
| 2026-05-03 20:57 | 41.24069 | -7.43602 | 22031 ft | 464 kts | 253° |
| 2026-05-03 20:57 | 41.23153 | -7.47729 | 20931 ft | 466 kts | 253° |
| 2026-05-03 20:57 | 41.22241 | -7.51837 | 20091 ft | 459 kts | 253° |
| 2026-05-03 20:57 | 41.21346 | -7.55854 | 19237 ft | 448 kts | 253° |
| 2026-05-03 20:58 | 41.20468 | -7.59793 | 18257 ft | 442 kts | 253° |
| 2026-05-03 20:58 | 41.19602 | -7.63672 | 17274 ft | 436 kts | 253° |
| 2026-05-03 20:58 | 41.18745 | -7.67500 | 16356 ft | 429 kts | 253° |
| 2026-05-03 20:58 | 41.17915 | -7.71205 | 16064 ft | 405 kts | 253° |
| 2026-05-03 20:59 | 41.17137 | -7.74667 | 15896 ft | 379 kts | 253° |
| 2026-05-03 20:59 | 41.16397 | -7.77959 | 15561 ft | 366 kts | 253° |
| 2026-05-03 20:59 | 41.15674 | -7.81172 | 14857 ft | 362 kts | 253° |
| 2026-05-03 20:59 | 41.14952 | -7.84371 | 14113 ft | 361 kts | 253° |
| 2026-05-03 21:00 | 41.14237 | -7.87538 | 13437 ft | 357 kts | 253° |
| 2026-05-03 21:00 | 41.14006 | -7.88559 | 13231 ft | 355 kts | 253° |
| 2026-05-03 21:00 | 41.12835 | -7.93729 | 12206 ft | 349 kts | 253° |
| 2026-05-03 21:00 | 41.12147 | -7.96766 | 11802 ft | 338 kts | 253° |
| 2026-05-03 21:01 | 41.11486 | -7.99674 | 11634 ft | 321 kts | 253° |
| 2026-05-03 21:01 | 41.10851 | -8.02466 | 11352 ft | 310 kts | 253° |
| 2026-05-03 21:01 | 41.10239 | -8.05156 | 11094 ft | 300 kts | 253° |
| 2026-05-03 21:01 | 41.09644 | -8.07766 | 10805 ft | 292 kts | 253° |
| 2026-05-03 21:02 | 41.09062 | -8.10315 | 10455 ft | 286 kts | 253° |
| 2026-05-03 21:02 | 41.08488 | -8.12831 | 10049 ft | 284 kts | 253° |
| 2026-05-03 21:02 | 41.07917 | -8.15327 | 9609 ft | 283 kts | 253° |
| 2026-05-03 21:02 | 41.07348 | -8.17810 | 9195 ft | 280 kts | 253° |
| 2026-05-03 21:03 | 41.06785 | -8.20266 | 8789 ft | 278 kts | 253° |
| 2026-05-03 21:03 | 41.06217 | -8.22741 | 8378 ft | 276 kts | 253° |
| 2026-05-03 21:03 | 41.05659 | -8.25168 | 7973 ft | 274 kts | 253° |
| 2026-05-03 21:03 | 41.05113 | -8.27545 | 7591 ft | 272 kts | 253° |
| 2026-05-03 21:04 | 41.04561 | -8.29946 | 7280 ft | 266 kts | 252° |
| 2026-05-03 21:04 | 41.04026 | -8.32265 | 6988 ft | 261 kts | 252° |
| 2026-05-03 21:04 | 41.03502 | -8.34539 | 6711 ft | 255 kts | 252° |
| 2026-05-03 21:04 | 41.02987 | -8.36769 | 6443 ft | 251 kts | 252° |
| 2026-05-03 21:05 | 41.02484 | -8.38948 | 6187 ft | 250 kts | 252° |
| 2026-05-03 21:05 | 41.02139 | -8.40439 | 5980 ft | 251 kts | 252° |
| 2026-05-03 21:05 | 41.01457 | -8.43386 | 5646 ft | 249 kts | 252° |
| 2026-05-03 21:05 | 41.00956 | -8.45544 | 5389 ft | 248 kts | 252° |
| 2026-05-03 21:06 | 41.00452 | -8.47716 | 5227 ft | 243 kts | 252° |
| 2026-05-03 21:06 | 41.00051 | -8.49863 | 5190 ft | 238 kts | 258° |
| 2026-05-03 21:06 | 40.99839 | -8.51322 | 5142 ft | 239 kts | 259° |
| 2026-05-03 21:06 | 40.99429 | -8.54191 | 5017 ft | 238 kts | 259° |
| 2026-05-03 21:07 | 40.99223 | -8.55604 | 4944 ft | 233 kts | 258° |
| 2026-05-03 21:07 | 40.98921 | -8.57701 | 4817 ft | 226 kts | 261° |
| 2026-05-03 21:07 | 40.99077 | -8.59700 | 4625 ft | 221 kts | 294° |
| 2026-05-03 21:07 | 41.00023 | -8.61231 | 4401 ft | 214 kts | 324° |
| 2026-05-03 21:08 | 41.01356 | -8.62002 | 4195 ft | 207 kts | 347° |
| 2026-05-03 21:08 | 41.02745 | -8.62368 | 4012 ft | 199 kts | 348° |
| 2026-05-03 21:08 | 41.04074 | -8.62714 | 3963 ft | 193 kts | 348° |
| 2026-05-03 21:08 | 41.05413 | -8.63065 | 3751 ft | 195 kts | 348° |
| 2026-05-03 21:09 | 41.06752 | -8.63414 | 3504 ft | 197 kts | 348° |
| 2026-05-03 21:09 | 41.08072 | -8.63755 | 3242 ft | 195 kts | 348° |
| 2026-05-03 21:09 | 41.09394 | -8.64098 | 2986 ft | 192 kts | 348° |
| 2026-05-03 21:09 | 41.10695 | -8.64435 | 2727 ft | 187 kts | 348° |
| 2026-05-03 21:10 | 41.11936 | -8.64758 | 2490 ft | 176 kts | 348° |
| 2026-05-03 21:10 | 41.13114 | -8.65065 | 2259 ft | 171 kts | 348° |
| 2026-05-03 21:10 | 41.14242 | -8.65359 | 2077 ft | 159 kts | 348° |
| 2026-05-03 21:10 | 41.15286 | -8.65631 | 1888 ft | 152 kts | 348° |
| 2026-05-03 21:11 | 41.16334 | -8.65903 | 1612 ft | 153 kts | 348° |
| 2026-05-03 21:11 | 41.17358 | -8.66164 | 1395 ft | 148 kts | 348° |
| 2026-05-03 21:11 | 41.18359 | -8.66430 | 1209 ft | 146 kts | 348° |
| 2026-05-03 21:11 | 41.19364 | -8.66696 | 1037 ft | 148 kts | 348° |
| 2026-05-03 21:12 | 41.20372 | -8.66964 | 833 ft | 147 kts | 348° |
| 2026-05-03 21:12 | 41.21372 | -8.67223 | 647 ft | 145 kts | 348° |
| 2026-05-03 21:12 | 41.22365 | -8.67482 | 484 ft | 146 kts | 348° |
| 2026-05-03 21:12 | 41.23362 | -8.67744 | 292 ft | 146 kts | 348° |
| 2026-05-03 21:13 | 41.24346 | -8.68009 | 210 ft | 137 kts | 345° |
| 2026-05-03 21:13 | 41.25069 | -8.68193 | 186 ft | 77 kts | 348° |
| 2026-05-03 21:13 | 41.25454 | -8.68295 | 175 ft | 37 kts | 348° |
| 2026-05-03 21:13 | 41.25572 | -8.68305 | 172 ft | 12 kts | 28° |
| 2026-05-03 21:14 | 41.25607 | -8.68203 | 169 ft | 14 kts | 79° |
| 2026-05-03 21:14 | 41.25575 | -8.68099 | 171 ft | 13 kts | 156° |
| 2026-05-03 21:14 | 41.25488 | -8.68073 | 174 ft | 13 kts | 169° |
| 2026-05-03 21:14 | 41.25402 | -8.68051 | 177 ft | 12 kts | 169° |
| 2026-05-03 21:15 | 41.25318 | -8.68028 | 179 ft | 12 kts | 168° |
| 2026-05-03 21:15 | 41.25237 | -8.68007 | 183 ft | 12 kts | 168° |
| 2026-05-03 21:15 | 41.25157 | -8.67986 | 187 ft | 11 kts | 169° |
| 2026-05-03 21:15 | 41.25080 | -8.67966 | 190 ft | 11 kts | 168° |
| 2026-05-03 21:16 | 41.25005 | -8.67946 | 192 ft | 11 kts | 169° |
| 2026-05-03 21:16 | 41.24923 | -8.67925 | 195 ft | 12 kts | 168° |
| 2026-05-03 21:16 | 41.24845 | -8.67885 | 200 ft | 12 kts | 152° |
| 2026-05-03 21:16 | 41.24773 | -8.67835 | 204 ft | 12 kts | 159° |
| 2026-05-03 21:17 | 41.24684 | -8.67807 | 209 ft | 14 kts | 168° |
| 2026-05-03 21:17 | 41.24617 | -8.67789 | 213 ft | 15 kts | 169° |
| 2026-05-03 21:17 | 41.24485 | -8.67755 | 220 ft | 14 kts | 169° |
| 2026-05-03 21:17 | 41.24392 | -8.67731 | 225 ft | 13 kts | 169° |
| 2026-05-03 21:18 | 41.24305 | -8.67697 | 230 ft | 13 kts | 146° |
| 2026-05-03 21:18 | 41.24248 | -8.67607 | 235 ft | 13 kts | 129° |
| 2026-05-03 21:18 | 41.24203 | -8.67532 | 238 ft | 10 kts | 133° |
| 2026-05-03 21:18 | 41.24151 | -8.67477 | 240 ft | 10 kts | 148° |
| 2026-05-03 21:19 | 41.24092 | -8.67438 | 241 ft | 9 kts | 161° |
| 2026-05-03 21:19 | 41.24028 | -8.67420 | 241 ft | 10 kts | 171° |
| 2026-05-03 21:19 | 41.23963 | -8.67444 | 240 ft | 9 kts | 214° |
| 2026-05-03 21:19 | 41.23950 | -8.67454 | 239 ft | 1 kts | 195° |
| 2026-05-03 21:20 | 41.23931 | -8.67439 | 239 ft | 4 kts | 137° |
| 2026-05-03 21:20 | 41.23915 | -8.67412 | 241 ft | 4 kts | 125° |
| 2026-05-03 21:20 | 41.23903 | -8.67388 | 242 ft | 0 kts | 124° |